Time;durP1;ratioP1;P1;durP2;ratioP2;P2;SDS_P1;SDS_P2;PMS_P1;PMS_P2;Temp;Humidity;BMP_temperature;BMP_pressure;BME280_temperature;BME280_humidity;BME280_pressure;Samples;Min_cycle;Max_cycle;Signal;HPM_P1;HPM_P2
2023/11/18 00:01:04;;;;;;;10.03;8.90;;;21.70;90.10;;;;;;5044989;28;20458;-70
2023/11/18 00:03:30;;;;;;;12.17;9.90;;;21.70;90.10;;;;;;5048160;28;20481;-68
2023/11/18 00:05:57;;;;;;;10.17;8.60;;;21.70;90.10;;;;;;5050065;28;20482;-73
2023/11/18 00:08:24;;;;;;;10.23;9.03;;;21.60;90.00;;;;;;5048465;28;20488;-73
2023/11/18 00:10:51;;;;;;;9.50;8.53;;;21.70;90.10;;;;;;5050329;28;20474;-70
2023/11/18 00:13:18;;;;;;;8.60;7.70;;;21.70;90.10;;;;;;5050328;28;20829;-68
2023/11/18 00:15:45;;;;;;;8.90;8.00;;;21.70;90.10;;;;;;5047742;28;21054;-70
2023/11/18 00:18:13;;;;;;;9.67;8.77;;;21.60;90.10;;;;;;5052807;28;20945;-68
2023/11/18 00:20:40;;;;;;;9.30;7.43;;;21.60;90.10;;;;;;5045431;28;20465;-69
2023/11/18 00:23:07;;;;;;;9.37;8.50;;;21.60;90.10;;;;;;5044531;28;20457;-72
2023/11/18 00:25:36;;;;;;;9.50;8.07;;;21.60;90.10;;;;;;5046470;28;20488;-71
2023/11/18 00:28:03;;;;;;;8.17;7.37;;;21.60;90.10;;;;;;5048423;28;20842;-72
2023/11/18 00:30:30;;;;;;;9.37;8.07;;;21.60;90.20;;;;;;5046550;28;20875;-70
2023/11/18 00:32:56;;;;;;;9.67;8.77;;;21.60;90.10;;;;;;5044889;28;20465;-71
2023/11/18 00:35:24;;;;;;;10.07;9.07;;;21.60;90.20;;;;;;5047426;28;20809;-69
2023/11/18 00:37:51;;;;;;;10.43;8.43;;;21.60;90.20;;;;;;5038983;28;20468;-72
2023/11/18 00:40:18;;;;;;;9.37;8.20;;;21.60;90.20;;;;;;5043421;28;20454;-73
2023/11/18 00:42:46;;;;;;;8.67;7.30;;;21.60;90.20;;;;;;5044660;28;20464;-73
2023/11/18 00:45:13;;;;;;;8.70;7.90;;;21.60;90.20;;;;;;5044575;28;20496;-73
2023/11/18 00:47:40;;;;;;;8.80;7.90;;;21.60;90.20;;;;;;5044042;28;21275;-71
2023/11/18 00:50:08;;;;;;;8.70;7.83;;;21.60;90.20;;;;;;5037436;28;21252;-69
2023/11/18 00:52:38;;;;;;;9.87;8.87;;;21.60;90.20;;;;;;5043794;28;20531;-69
2023/11/18 00:55:07;;;;;;;8.80;7.83;;;21.60;90.20;;;;;;5042074;28;20468;-69
2023/11/18 00:57:33;;;;;;;8.70;7.80;;;21.60;90.20;;;;;;5041839;28;20463;-71
2023/11/18 01:00:00;;;;;;;9.33;7.93;;;21.60;90.20;;;;;;5043045;28;20460;-71
2023/11/18 01:02:27;;;;;;;7.17;6.47;;;21.60;90.20;;;;;;5039603;28;20458;-68
2023/11/18 01:04:55;;;;;;;8.70;7.87;;;21.60;90.20;;;;;;5041161;28;20556;-70
2023/11/18 01:07:22;;;;;;;8.57;7.77;;;21.60;90.20;;;;;;5040842;28;20500;-72
2023/11/18 01:09:50;;;;;;;9.33;8.43;;;21.60;90.20;;;;;;5041624;28;20457;-72
2023/11/18 01:12:16;;;;;;;8.60;7.80;;;21.60;90.20;;;;;;5046516;28;20440;-71
2023/11/18 01:14:43;;;;;;;9.17;7.60;;;21.60;90.20;;;;;;5048772;28;20457;-71
2023/11/18 01:17:10;;;;;;;8.57;7.77;;;21.60;90.20;;;;;;5041840;28;20457;-71
2023/11/18 01:19:37;;;;;;;9.13;8.33;;;21.60;90.20;;;;;;5041786;28;20453;-71
2023/11/18 01:22:05;;;;;;;7.43;6.73;;;21.60;90.20;;;;;;5041263;28;20538;-71
2023/11/18 01:24:32;;;;;;;8.43;7.57;;;21.50;90.10;;;;;;5044758;28;20452;-70
2023/11/18 01:27:00;;;;;;;7.33;6.63;;;21.50;90.10;;;;;;5048033;28;20465;-73
2023/11/18 01:29:27;;;;;;;8.13;6.87;;;21.50;90.10;;;;;;5049754;28;20498;-71
2023/11/18 01:31:55;;;;;;;7.43;6.80;;;21.60;90.20;;;;;;5047648;28;20468;-72
2023/11/18 01:34:22;;;;;;;8.20;7.00;;;21.50;90.20;;;;;;5051556;28;20466;-72
2023/11/18 01:36:50;;;;;;;8.50;7.70;;;21.50;90.20;;;;;;5047301;28;20514;-73
2023/11/18 01:39:17;;;;;;;8.73;7.93;;;21.50;90.10;;;;;;5050342;28;20456;-69
2023/11/18 01:41:44;;;;;;;8.60;7.80;;;21.50;90.10;;;;;;5050358;28;20447;-70
2023/11/18 01:44:14;;;;;;;8.70;7.90;;;21.50;90.50;;;;;;5050647;28;20463;-67
2023/11/18 01:46:44;;;;;;;7.87;7.07;;;21.50;90.10;;;;;;5048467;28;20465;-71
2023/11/18 01:49:13;;;;;;;9.27;8.03;;;21.50;90.10;;;;;;5051383;28;20466;-67
2023/11/18 01:51:41;;;;;;;7.80;6.90;;;21.50;90.10;;;;;;5053999;28;21072;-70
2023/11/18 01:54:12;;;;;;;8.17;6.73;;;21.50;90.10;;;;;;5049317;28;20462;-67
2023/11/18 01:56:42;;;;;;;7.77;7.07;;;21.50;90.10;;;;;;5052273;28;20471;-68
2023/11/18 01:59:10;;;;;;;6.83;6.20;;;21.50;90.10;;;;;;5052684;28;20473;-70
2023/11/18 02:01:39;;;;;;;7.67;6.87;;;21.50;90.10;;;;;;5047710;28;20804;-67
2023/11/18 02:04:07;;;;;;;8.80;7.90;;;21.50;90.10;;;;;;5053390;28;20455;-67
2023/11/18 02:06:36;;;;;;;7.67;6.93;;;21.50;90.20;;;;;;5049512;28;20565;-67
2023/11/18 02:09:03;;;;;;;7.97;7.17;;;21.50;90.20;;;;;;5051912;28;20491;-70
2023/11/18 02:11:41;;;;;;;7.90;7.20;;;21.50;90.10;;;;;;5049600;28;20556;-70
2023/11/18 02:14:10;;;;;;;7.07;6.37;;;21.50;90.10;;;;;;5050109;28;20463;-71
2023/11/18 02:16:39;;;;;;;7.80;6.97;;;21.50;90.10;;;;;;5047167;28;20457;-71
2023/11/18 02:19:16;;;;;;;6.90;6.23;;;21.50;90.10;;;;;;5048971;28;20461;-70
2023/11/18 02:21:44;;;;;;;7.70;7.00;;;21.50;90.10;;;;;;5039646;28;20467;-71
2023/11/18 02:24:11;;;;;;;7.47;6.77;;;21.40;90.00;;;;;;5042609;28;20968;-70
2023/11/18 02:26:39;;;;;;;7.23;6.63;;;21.50;90.10;;;;;;5042258;28;20464;-68
2023/11/18 02:29:06;;;;;;;6.50;5.80;;;21.50;90.10;;;;;;5042292;28;20494;-68
2023/11/18 02:31:37;;;;;;;8.00;6.90;;;21.50;90.10;;;;;;5042477;28;21001;-71
2023/11/18 02:34:12;;;;;;;7.33;6.23;;;21.40;90.10;;;;;;5043112;28;20465;-69
2023/11/18 02:36:45;;;;;;;7.20;6.57;;;21.40;90.10;;;;;;5045055;28;20515;-71
2023/11/18 02:39:17;;;;;;;7.17;6.47;;;21.40;90.10;;;;;;5042816;28;20546;-70
2023/11/18 02:41:49;;;;;;;8.40;7.60;;;21.40;90.10;;;;;;5042969;28;20484;-70
2023/11/18 02:44:19;;;;;;;6.83;6.23;;;21.40;90.10;;;;;;5042175;28;20464;-69
2023/11/18 02:46:48;;;;;;;7.57;6.53;;;21.40;90.10;;;;;;5044311;28;20460;-69
2023/11/18 02:49:17;;;;;;;8.40;6.70;;;21.40;90.10;;;;;;5042283;28;20479;-66
2023/11/18 02:51:47;;;;;;;7.30;6.70;;;21.40;90.10;;;;;;5043702;28;20543;-71
2023/11/18 02:54:16;;;;;;;6.57;5.97;;;21.40;90.20;;;;;;5044191;28;20649;-72
2023/11/18 02:56:43;;;;;;;7.77;7.13;;;21.40;90.20;;;;;;5044559;28;20522;-69
2023/11/18 02:59:11;;;;;;;6.30;5.70;;;21.50;90.30;;;;;;5040956;28;21539;-67
2023/11/18 03:01:39;;;;;;;7.73;7.03;;;21.40;90.20;;;;;;5041459;28;20965;-70
2023/11/18 03:04:06;;;;;;;6.60;6.00;;;21.40;90.20;;;;;;5041158;28;20468;-72
2023/11/18 03:06:33;;;;;;;6.30;5.70;;;21.50;90.30;;;;;;5045950;28;20504;-70
2023/11/18 03:09:00;;;;;;;7.90;7.10;;;21.50;90.30;;;;;;5044403;28;20892;-71
2023/11/18 03:11:31;;;;;;;7.60;6.90;;;21.50;90.30;;;;;;5044602;28;20468;-70
2023/11/18 03:13:57;;;;;;;7.07;6.37;;;21.50;90.30;;;;;;5046170;28;21230;-69
2023/11/18 03:16:25;;;;;;;7.13;6.53;;;21.50;90.30;;;;;;5043673;28;20468;-69
2023/11/18 03:18:53;;;;;;;6.23;5.73;;;21.50;90.30;;;;;;5045142;28;20453;-67
2023/11/18 03:21:20;;;;;;;7.40;6.60;;;21.50;90.30;;;;;;5041028;28;20457;-67
2023/11/18 03:23:47;;;;;;;6.70;6.07;;;21.50;90.30;;;;;;5036302;28;20547;-70
2023/11/18 03:26:13;;;;;;;6.13;5.63;;;21.50;90.70;;;;;;5044076;28;20455;-67
2023/11/18 03:28:41;;;;;;;6.87;6.27;;;21.50;90.30;;;;;;5050717;28;20524;-69
2023/11/18 03:31:09;;;;;;;7.40;6.73;;;21.50;90.30;;;;;;5040600;28;20461;-68
2023/11/18 03:33:37;;;;;;;6.93;6.23;;;21.50;90.40;;;;;;5045958;28;20544;-72
2023/11/18 03:36:04;;;;;;;6.67;6.00;;;21.50;90.30;;;;;;5047863;28;20467;-71
2023/11/18 03:38:31;;;;;;;7.20;6.50;;;21.50;90.30;;;;;;5047335;28;20465;-70
2023/11/18 03:40:58;;;;;;;6.20;5.60;;;21.50;90.30;;;;;;5049096;28;20497;-71
2023/11/18 03:43:25;;;;;;;6.50;5.90;;;21.50;90.30;;;;;;5051717;28;21487;-72
2023/11/18 03:45:56;;;;;;;5.93;5.43;;;21.50;90.30;;;;;;5053509;28;20471;-72
2023/11/18 03:48:23;;;;;;;6.43;5.80;;;21.50;90.30;;;;;;5052218;28;20468;-69
2023/11/18 03:50:51;;;;;;;6.70;6.10;;;21.50;90.30;;;;;;5049928;28;20468;-71
2023/11/18 03:53:18;;;;;;;6.17;5.63;;;21.50;90.30;;;;;;5050738;28;20460;-70
2023/11/18 03:55:44;;;;;;;6.77;6.20;;;21.50;90.30;;;;;;5054253;28;20465;-68
2023/11/18 03:58:11;;;;;;;6.93;5.83;;;21.50;90.30;;;;;;5045843;28;20464;-72
2023/11/18 04:00:38;;;;;;;6.33;5.63;;;21.50;90.30;;;;;;5041676;28;20464;-71
2023/11/18 04:03:07;;;;;;;6.70;6.00;;;21.50;90.30;;;;;;5041829;28;20465;-69
2023/11/18 04:05:34;;;;;;;6.97;6.07;;;21.50;90.30;;;;;;5042013;28;20472;-67
2023/11/18 04:08:02;;;;;;;6.23;5.73;;;21.50;90.30;;;;;;5041193;28;20975;-68
2023/11/18 04:10:29;;;;;;;6.70;6.10;;;21.50;90.30;;;;;;5042298;28;20844;-70
2023/11/18 04:12:56;;;;;;;6.90;6.20;;;21.50;90.30;;;;;;5040203;28;20944;-71
2023/11/18 04:15:24;;;;;;;7.03;6.33;;;21.50;90.30;;;;;;5042902;28;20504;-70
2023/11/18 04:17:52;;;;;;;7.27;6.17;;;21.50;90.30;;;;;;5042333;28;20461;-72
2023/11/18 04:20:19;;;;;;;6.27;5.67;;;21.50;90.30;;;;;;5041430;28;20471;-68
2023/11/18 04:22:46;;;;;;;6.40;5.80;;;21.50;90.30;;;;;;5041426;28;20472;-68
2023/11/18 04:25:15;;;;;;;6.13;5.57;;;21.50;90.30;;;;;;5040509;28;20471;-69
2023/11/18 04:27:41;;;;;;;6.67;6.07;;;21.50;90.30;;;;;;5041983;28;20464;-70
2023/11/18 04:30:09;;;;;;;6.63;6.00;;;21.50;90.30;;;;;;5039722;28;20473;-69
2023/11/18 04:32:36;;;;;;;6.07;5.47;;;21.50;90.30;;;;;;5040030;28;20460;-71
2023/11/18 04:35:06;;;;;;;6.50;6.00;;;21.50;90.30;;;;;;5043755;28;20465;-71
2023/11/18 04:37:33;;;;;;;6.20;5.60;;;21.50;90.30;;;;;;5042582;28;20452;-71
2023/11/18 04:40:00;;;;;;;6.90;6.20;;;21.50;90.30;;;;;;5043425;28;20501;-71
2023/11/18 04:42:29;;;;;;;6.30;5.33;;;21.50;90.30;;;;;;5042195;28;20483;-67
2023/11/18 04:44:56;;;;;;;6.43;5.77;;;21.50;90.30;;;;;;5042965;28;20541;-70
2023/11/18 04:47:24;;;;;;;6.40;5.80;;;21.50;90.30;;;;;;5037912;28;20454;-69
2023/11/18 04:49:51;;;;;;;6.63;5.20;;;21.50;90.30;;;;;;5043048;28;20572;-69
2023/11/18 04:52:18;;;;;;;5.73;5.23;;;21.50;90.40;;;;;;5041823;28;20460;-68
2023/11/18 04:54:47;;;;;;;5.50;4.97;;;21.50;90.40;;;;;;5043762;28;20471;-70
2023/11/18 04:57:14;;;;;;;6.53;5.93;;;21.50;90.40;;;;;;5041233;28;20465;-71
2023/11/18 04:59:42;;;;;;;5.47;4.97;;;21.50;90.40;;;;;;5044432;28;20988;-68
2023/11/18 05:02:09;;;;;;;6.43;5.83;;;21.50;90.40;;;;;;5043915;28;20471;-70
2023/11/18 05:04:36;;;;;;;6.57;5.37;;;21.50;90.40;;;;;;5042706;28;21611;-71
2023/11/18 05:07:03;;;;;;;6.00;5.50;;;21.50;90.40;;;;;;5046383;28;21342;-70
2023/11/18 05:09:31;;;;;;;5.73;5.23;;;21.50;90.40;;;;;;5048222;28;21019;-71
2023/11/18 05:11:59;;;;;;;6.17;5.67;;;21.60;90.40;;;;;;5047190;28;20983;-70
2023/11/18 05:14:26;;;;;;;6.40;5.80;;;21.50;90.40;;;;;;5046585;28;20636;-68
2023/11/18 05:16:54;;;;;;;5.33;4.83;;;21.50;90.30;;;;;;5042508;28;20725;-71
2023/11/18 05:19:21;;;;;;;6.07;5.57;;;21.50;90.40;;;;;;5046830;28;20542;-71
2023/11/18 05:21:49;;;;;;;4.90;4.50;;;21.50;90.40;;;;;;5040415;28;20522;-68
2023/11/18 05:24:16;;;;;;;5.13;4.53;;;21.50;90.40;;;;;;5044701;28;20551;-71
2023/11/18 05:26:42;;;;;;;6.00;5.40;;;21.50;90.60;;;;;;5044257;28;20460;-72
2023/11/18 05:29:09;;;;;;;4.90;4.50;;;21.50;90.40;;;;;;5045020;28;20525;-71
2023/11/18 05:31:37;;;;;;;6.23;5.73;;;21.50;90.40;;;;;;5040219;28;20826;-70
2023/11/18 05:34:05;;;;;;;5.53;5.03;;;21.50;90.40;;;;;;5046207;28;20453;-72
2023/11/18 05:36:37;;;;;;;5.50;5.00;;;21.50;90.30;;;;;;5043304;28;20457;-69
2023/11/18 05:39:04;;;;;;;5.83;5.03;;;21.50;90.40;;;;;;5049245;28;20451;-69
2023/11/18 05:41:32;;;;;;;5.77;5.27;;;21.50;90.40;;;;;;5048114;28;20491;-70
2023/11/18 05:43:58;;;;;;;6.53;5.90;;;21.50;90.40;;;;;;5045761;28;20468;-71
2023/11/18 05:46:29;;;;;;;6.07;5.57;;;21.50;90.40;;;;;;5043244;28;20463;-72
2023/11/18 05:48:56;;;;;;;5.43;4.93;;;21.50;90.40;;;;;;5053420;28;20482;-71
2023/11/18 05:51:25;;;;;;;5.60;5.10;;;21.50;90.40;;;;;;5038549;28;20467;-69
2023/11/18 05:53:52;;;;;;;4.53;4.20;;;21.50;90.40;;;;;;5043936;28;21058;-67
2023/11/18 05:56:22;;;;;;;6.00;5.50;;;21.50;90.70;;;;;;5046046;28;20461;-70
2023/11/18 05:58:48;;;;;;;5.00;4.50;;;21.50;90.40;;;;;;5039745;28;20458;-69
2023/11/18 06:01:17;;;;;;;5.20;4.70;;;21.50;90.40;;;;;;5040525;28;20453;-71
2023/11/18 06:03:45;;;;;;;5.97;5.33;;;21.50;90.40;;;;;;5041557;28;20540;-69
2023/11/18 06:06:13;;;;;;;4.80;4.40;;;21.50;90.30;;;;;;5045044;28;20471;-70
2023/11/18 06:08:42;;;;;;;5.20;4.80;;;21.50;90.40;;;;;;5041222;28;20468;-66
2023/11/18 06:11:13;;;;;;;5.30;4.80;;;21.50;90.40;;;;;;5042568;28;20460;-71
2023/11/18 06:13:42;;;;;;;4.87;4.40;;;21.50;90.40;;;;;;5047188;28;20460;-67
2023/11/18 06:16:13;;;;;;;5.43;4.93;;;21.50;90.40;;;;;;5051475;28;20463;-71
2023/11/18 06:18:41;;;;;;;5.10;4.60;;;21.50;90.40;;;;;;5055708;28;20460;-68
2023/11/18 06:21:08;;;;;;;4.63;4.23;;;21.50;90.40;;;;;;5043466;28;20464;-67
2023/11/18 06:23:35;;;;;;;4.97;4.50;;;21.50;90.40;;;;;;5045374;28;20547;-69
2023/11/18 06:26:04;;;;;;;5.87;5.37;;;21.50;90.40;;;;;;5053155;28;20475;-68
2023/11/18 06:28:31;;;;;;;5.30;4.80;;;21.50;90.40;;;;;;5050203;28;21050;-72
2023/11/18 06:30:57;;;;;;;4.70;4.30;;;21.50;90.40;;;;;;5052048;28;20483;-72
2023/11/18 06:33:27;;;;;;;5.00;4.57;;;21.50;90.40;;;;;;5040983;28;20458;-68
2023/11/18 06:35:56;;;;;;;5.20;4.70;;;21.50;90.40;;;;;;5044994;28;20460;-71
2023/11/18 06:38:24;;;;;;;5.13;4.67;;;21.50;90.40;;;;;;5048934;28;20452;-70
2023/11/18 06:40:52;;;;;;;5.40;4.90;;;21.50;90.40;;;;;;5049957;28;20579;-70
2023/11/18 06:43:20;;;;;;;4.70;4.30;;;21.50;90.40;;;;;;5050145;28;20492;-71
2023/11/18 06:45:48;;;;;;;5.00;4.60;;;21.50;90.40;;;;;;5051232;28;21000;-68
2023/11/18 06:48:18;;;;;;;4.73;4.30;;;21.50;90.40;;;;;;5051142;28;20873;-70
2023/11/18 06:50:47;;;;;;;4.80;4.40;;;21.50;90.40;;;;;;5051767;28;20551;-70
2023/11/18 06:53:15;;;;;;;4.40;4.00;;;21.50;90.40;;;;;;5050858;28;20465;-71
2023/11/18 06:55:42;;;;;;;4.33;3.93;;;21.50;90.40;;;;;;5047502;28;21869;-69
2023/11/18 06:58:09;;;;;;;5.60;5.10;;;21.50;90.40;;;;;;5052259;28;20460;-69
2023/11/18 07:00:38;;;;;;;4.30;3.87;;;21.50;90.40;;;;;;5048930;28;20516;-68
2023/11/18 07:03:05;;;;;;;4.57;4.20;;;21.50;90.40;;;;;;5050223;28;20466;-69
2023/11/18 07:05:32;;;;;;;4.30;3.90;;;21.50;90.40;;;;;;5047715;28;20466;-70
2023/11/18 07:07:59;;;;;;;4.47;4.07;;;21.50;90.40;;;;;;5046312;28;20540;-69
2023/11/18 07:10:27;;;;;;;5.70;4.63;;;21.50;90.40;;;;;;5047249;28;20480;-69
2023/11/18 07:12:54;;;;;;;5.17;4.47;;;21.50;90.30;;;;;;5052650;28;20452;-71
2023/11/18 07:15:21;;;;;;;5.03;4.60;;;21.50;90.30;;;;;;5043487;28;20825;-69
2023/11/18 07:17:49;;;;;;;5.57;5.07;;;21.50;90.30;;;;;;5049523;28;20459;-69
2023/11/18 07:20:16;;;;;;;5.07;4.67;;;21.50;90.30;;;;;;5046172;28;20463;-68
2023/11/18 07:22:43;;;;;;;4.47;4.07;;;21.40;90.20;;;;;;5038028;28;20493;-69
2023/11/18 07:25:10;;;;;;;5.90;5.00;;;21.40;90.20;;;;;;5041874;28;20460;-71
2023/11/18 07:27:37;;;;;;;4.07;3.77;;;21.40;90.20;;;;;;5042108;28;20461;-67
2023/11/18 07:30:10;;;;;;;5.73;4.83;;;21.40;90.20;;;;;;5046912;28;20991;-69
2023/11/18 07:32:38;;;;;;;4.93;4.53;;;21.40;90.20;;;;;;5043592;28;20460;-69
2023/11/18 07:35:08;;;;;;;4.27;3.93;;;21.40;90.30;;;;;;5047481;28;20468;-70
2023/11/18 07:37:36;;;;;;;3.50;3.20;;;21.50;90.40;;;;;;5045585;28;20675;-70
2023/11/18 07:40:05;;;;;;;4.67;4.20;;;21.40;90.30;;;;;;5045411;28;20492;-70
2023/11/18 07:42:34;;;;;;;5.00;4.50;;;21.40;90.30;;;;;;5049752;28;20555;-68
2023/11/18 07:45:03;;;;;;;5.10;4.70;;;21.40;90.30;;;;;;5049222;28;20468;-70
2023/11/18 07:47:31;;;;;;;5.00;4.60;;;21.40;90.30;;;;;;5042634;28;20583;-71
2023/11/18 07:49:58;;;;;;;4.50;4.10;;;21.50;90.40;;;;;;5041483;28;20543;-68
2023/11/18 07:52:27;;;;;;;3.90;3.60;;;21.50;90.40;;;;;;5043926;28;20465;-64
2023/11/18 07:54:54;;;;;;;6.00;4.10;;;21.50;90.40;;;;;;5043662;28;20457;-64
2023/11/18 07:57:23;;;;;;;4.23;3.83;;;21.50;90.40;;;;;;5046790;28;20499;-65
2023/11/18 07:59:50;;;;;;;4.80;4.40;;;21.50;90.40;;;;;;5044975;28;20828;-64
2023/11/18 08:02:18;;;;;;;5.40;4.43;;;21.50;90.40;;;;;;5040845;28;20458;-65
2023/11/18 08:04:45;;;;;;;4.20;3.80;;;21.50;90.40;;;;;;5047071;28;20548;-64
2023/11/18 08:07:12;;;;;;;4.13;3.73;;;21.50;90.40;;;;;;5046047;28;20995;-64
2023/11/18 08:09:42;;;;;;;4.40;4.00;;;21.50;90.40;;;;;;5045779;28;20480;-64
2023/11/18 08:12:09;;;;;;;4.10;3.73;;;21.50;90.40;;;;;;5047467;28;20990;-64
2023/11/18 08:14:35;;;;;;;5.43;4.90;;;21.50;90.40;;;;;;5046843;28;20460;-63
2023/11/18 08:17:04;;;;;;;4.33;3.93;;;21.50;90.40;;;;;;5049251;28;20469;-63
2023/11/18 08:19:31;;;;;;;4.50;4.07;;;21.50;90.50;;;;;;5043375;28;20810;-64
2023/11/18 08:21:59;;;;;;;3.70;3.40;;;21.50;90.40;;;;;;5044256;28;20536;-63
2023/11/18 08:24:26;;;;;;;4.73;3.63;;;21.50;90.40;;;;;;5041357;28;20983;-64
2023/11/18 08:26:54;;;;;;;4.53;3.53;;;21.50;90.40;;;;;;5044227;28;20527;-64
2023/11/18 08:29:21;;;;;;;3.90;3.43;;;21.50;90.40;;;;;;5049652;28;20461;-64
2023/11/18 08:31:49;;;;;;;4.40;4.00;;;21.50;90.40;;;;;;5047983;28;20515;-64
2023/11/18 08:34:18;;;;;;;4.30;3.90;;;21.50;90.40;;;;;;5049851;28;20978;-64
2023/11/18 08:36:46;;;;;;;4.27;3.87;;;21.50;90.40;;;;;;5045953;28;20547;-63
2023/11/18 08:39:16;;;;;;;4.53;3.97;;;21.50;90.40;;;;;;5046014;28;20979;-65
2023/11/18 08:41:43;;;;;;;4.60;3.60;;;21.50;90.80;;;;;;5050526;28;20463;-65
2023/11/18 08:44:12;;;;;;;3.87;3.57;;;21.50;90.40;;;;;;5050023;28;20461;-67
2023/11/18 08:46:39;;;;;;;4.63;4.23;;;21.50;90.40;;;;;;5046375;28;20825;-67
2023/11/18 08:49:10;;;;;;;4.23;3.83;;;21.50;90.40;;;;;;5047820;28;20468;-67
2023/11/18 08:51:38;;;;;;;3.53;3.23;;;21.50;90.40;;;;;;5047945;28;20513;-66
2023/11/18 08:54:22;;;;;;;4.30;3.90;;;21.50;90.40;;;;;;5040688;28;21035;-67
2023/11/18 08:56:50;;;;;;;4.90;4.40;;;21.50;90.40;;;;;;5039249;28;20791;-69
2023/11/18 08:59:20;;;;;;;3.80;3.50;;;21.50;90.40;;;;;;5041438;28;20461;-64
2023/11/18 09:01:48;;;;;;;4.77;4.37;;;21.50;90.30;;;;;;5040655;28;20461;-66
2023/11/18 09:04:15;;;;;;;5.47;4.17;;;21.50;90.30;;;;;;5047459;28;21681;-68
2023/11/18 09:06:42;;;;;;;4.00;3.67;;;21.50;89.90;;;;;;5041106;28;21240;-68
2023/11/18 09:09:11;;;;;;;4.70;4.30;;;21.50;90.10;;;;;;5044975;28;20552;-68
2023/11/18 09:11:40;;;;;;;4.07;3.43;;;21.50;90.10;;;;;;5045669;28;21344;-68
2023/11/18 09:14:08;;;;;;;3.97;3.60;;;21.50;89.80;;;;;;5044538;28;21504;-68
2023/11/18 09:16:39;;;;;;;5.80;4.43;;;21.50;89.60;;;;;;5040206;28;20462;-66
2023/11/18 09:19:06;;;;;;;4.37;3.97;;;21.50;89.10;;;;;;5045338;28;20454;-68
2023/11/18 09:21:35;;;;;;;3.90;3.60;;;21.50;89.10;;;;;;5043258;28;20453;-69
2023/11/18 09:24:05;;;;;;;3.93;3.63;;;21.50;88.90;;;;;;5046412;28;20551;-68
2023/11/18 09:26:32;;;;;;;5.37;4.00;;;21.40;88.70;;;;;;5043764;28;21388;-68
2023/11/18 09:29:01;;;;;;;3.90;3.60;;;21.50;88.70;;;;;;5048429;28;20466;-68
2023/11/18 09:31:28;;;;;;;3.87;3.57;;;21.50;88.70;;;;;;5042045;28;20489;-69
2023/11/18 09:33:57;;;;;;;3.37;3.07;;;21.50;88.60;;;;;;5046527;28;21777;-68
2023/11/18 09:36:24;;;;;;;4.00;3.70;;;21.40;88.30;;;;;;5045930;28;20464;-68
2023/11/18 09:38:52;;;;;;;3.70;3.40;;;21.40;88.10;;;;;;5046880;28;20495;-69
2023/11/18 09:41:18;;;;;;;3.57;3.27;;;21.40;88.20;;;;;;5047017;28;20507;-66
2023/11/18 09:43:47;;;;;;;3.30;3.00;;;21.40;88.10;;;;;;5049884;28;20829;-69
2023/11/18 09:46:15;;;;;;;3.93;3.63;;;21.40;87.90;;;;;;5045915;28;20453;-67
2023/11/18 09:48:46;;;;;;;4.13;3.83;;;21.40;87.80;;;;;;5043132;28;20472;-67
2023/11/18 09:51:17;;;;;;;3.67;3.37;;;21.40;88.10;;;;;;5048873;28;20664;-66
2023/11/18 09:53:46;;;;;;;4.00;3.57;;;21.40;88.00;;;;;;5050603;28;20791;-63
2023/11/18 09:56:26;;;;;;;4.13;3.73;;;21.40;88.10;;;;;;5052049;28;20548;-67
2023/11/18 09:59:03;;;;;;;4.03;3.27;;;21.40;88.20;;;;;;5052883;28;20447;-66
2023/11/18 10:01:37;;;;;;;3.67;3.37;;;21.40;88.10;;;;;;5049124;28;20497;-67
2023/11/18 10:04:06;;;;;;;3.63;3.33;;;21.40;88.20;;;;;;5046334;28;20456;-67
2023/11/18 10:06:36;;;;;;;3.57;3.27;;;21.40;88.30;;;;;;5045800;28;20472;-64
2023/11/18 10:09:15;;;;;;;3.70;3.40;;;21.40;88.30;;;;;;5046092;28;20474;-67
2023/11/18 10:11:42;;;;;;;3.50;3.20;;;21.40;88.50;;;;;;5048600;28;20511;-67
2023/11/18 10:14:10;;;;;;;3.83;3.53;;;21.40;89.20;;;;;;5047729;28;20453;-67
2023/11/18 10:16:38;;;;;;;3.57;3.27;;;21.40;88.40;;;;;;5047146;28;21327;-67
2023/11/18 10:19:08;;;;;;;3.10;2.90;;;21.40;88.50;;;;;;5050686;28;20461;-67
2023/11/18 10:21:39;;;;;;;4.50;4.10;;;21.40;88.60;;;;;;5051395;28;20523;-67
2023/11/18 10:24:14;;;;;;;3.27;2.97;;;21.40;89.30;;;;;;5050749;28;20463;-66
2023/11/18 10:26:41;;;;;;;3.17;2.87;;;21.40;88.70;;;;;;5049292;28;20533;-66
2023/11/18 10:29:10;;;;;;;8.17;3.17;;;21.40;88.70;;;;;;5050886;28;20456;-64
2023/11/18 10:31:44;;;;;;;5.80;3.40;;;21.50;89.20;;;;;;5046304;28;20481;-66
2023/11/18 10:34:12;;;;;;;4.77;3.30;;;21.50;89.00;;;;;;5049458;28;20538;-64
2023/11/18 10:36:41;;;;;;;8.97;3.23;;;21.50;89.10;;;;;;5047908;28;20470;-70
2023/11/18 10:39:16;;;;;;;3.37;3.07;;;21.50;89.30;;;;;;5050788;28;20959;-68
2023/11/18 10:41:45;;;;;;;3.00;2.80;;;21.50;89.60;;;;;;5050817;28;20487;-68
2023/11/18 10:44:15;;;;;;;3.50;3.20;;;21.50;89.70;;;;;;5046913;28;20885;-65
2023/11/18 10:46:47;;;;;;;3.23;2.93;;;21.50;89.80;;;;;;5044019;28;21103;-66
2023/11/18 10:49:14;;;;;;;2.93;2.73;;;21.50;89.90;;;;;;5045592;28;20462;-66
2023/11/18 10:51:42;;;;;;;3.50;3.20;;;21.50;90.00;;;;;;5043527;28;20486;-66
2023/11/18 10:54:15;;;;;;;4.57;2.87;;;21.50;90.00;;;;;;5051271;28;20472;-69
2023/11/18 10:56:47;;;;;;;2.97;2.77;;;21.50;90.00;;;;;;5050993;28;20461;-65
2023/11/18 10:59:16;;;;;;;4.30;3.37;;;21.50;89.90;;;;;;5042168;28;20974;-66
2023/11/18 11:01:43;;;;;;;11.63;3.47;;;21.50;89.50;;;;;;5046534;28;20468;-67
2023/11/18 11:04:11;;;;;;;6.30;2.97;;;21.50;90.00;;;;;;5041704;28;20453;-67
2023/11/18 11:06:51;;;;;;;3.60;2.73;;;21.50;90.20;;;;;;5042523;28;20517;-66
2023/11/18 11:09:20;;;;;;;15.00;4.60;;;21.50;90.20;;;;;;5044780;28;20460;-64
2023/11/18 11:11:51;;;;;;;9.17;3.30;;;21.50;90.20;;;;;;5043239;28;20508;-64
2023/11/18 11:14:19;;;;;;;5.80;2.90;;;21.60;90.10;;;;;;5045856;28;20521;-64
2023/11/18 11:16:56;;;;;;;3.83;2.93;;;21.60;90.10;;;;;;5047493;28;20459;-64
2023/11/18 11:19:29;;;;;;;4.10;3.13;;;21.60;90.10;;;;;;5049253;28;20472;-64
2023/11/18 11:22:07;;;;;;;3.63;2.90;;;21.60;90.00;;;;;;5042804;28;20457;-64
2023/11/18 11:24:49;;;;;;;2.97;2.67;;;21.60;90.00;;;;;;5045375;28;20453;-64
2023/11/18 11:27:29;;;;;;;2.43;2.23;;;21.60;90.00;;;;;;5045438;28;20538;-67
2023/11/18 11:30:10;;;;;;;3.60;2.67;;;21.70;90.00;;;;;;5045945;28;20476;-67
2023/11/18 11:32:45;;;;;;;2.87;2.67;;;21.70;90.00;;;;;;5045560;28;20465;-68
2023/11/18 11:35:21;;;;;;;2.83;2.63;;;21.70;89.90;;;;;;5046042;28;20513;-67
2023/11/18 11:37:50;;;;;;;2.73;2.53;;;21.70;89.80;;;;;;5040997;28;20493;-64
2023/11/18 11:40:21;;;;;;;3.43;3.13;;;21.70;89.80;;;;;;5047381;28;20588;-64
2023/11/18 11:42:54;;;;;;;3.07;2.73;;;21.70;89.60;;;;;;5048996;28;20964;-64
2023/11/18 11:45:28;;;;;;;3.00;2.80;;;21.70;89.60;;;;;;5046580;28;20452;-63
2023/11/18 11:48:12;;;;;;;3.60;3.30;;;21.70;89.30;;;;;;5039373;28;20493;-66
2023/11/18 11:50:51;;;;;;;3.20;2.90;;;21.80;89.50;;;;;;5046371;28;20586;-66
2023/11/18 11:53:25;;;;;;;3.30;3.00;;;21.80;89.40;;;;;;5043692;28;20513;-66
2023/11/18 11:55:54;;;;;;;2.93;2.73;;;21.80;89.40;;;;;;5047337;28;20465;-66
2023/11/18 11:58:28;;;;;;;3.00;2.70;;;21.70;89.20;;;;;;5049827;28;20461;-65
2023/11/18 12:00:55;;;;;;;3.33;3.03;;;21.80;89.10;;;;;;5046568;28;20559;-64
2023/11/18 12:03:23;;;;;;;2.90;2.60;;;21.80;89.10;;;;;;5048284;28;20457;-64
2023/11/18 12:05:51;;;;;;;4.70;2.57;;;21.80;88.90;;;;;;5046306;28;20479;-64
2023/11/18 12:08:21;;;;;;;2.90;2.70;;;21.80;88.90;;;;;;5045346;28;20461;-62
2023/11/18 12:10:53;;;;;;;2.40;2.20;;;21.80;88.80;;;;;;5041690;28;20461;-61
2023/11/18 12:13:21;;;;;;;5.03;2.90;;;21.80;88.90;;;;;;5047717;28;20908;-61
2023/11/18 12:15:56;;;;;;;2.80;2.60;;;21.80;89.10;;;;;;5040529;28;20461;-62
2023/11/18 12:18:24;;;;;;;2.40;2.20;;;21.80;89.20;;;;;;5047077;28;20456;-63
2023/11/18 12:20:55;;;;;;;2.90;2.70;;;21.80;89.40;;;;;;5043247;28;20452;-62
2023/11/18 12:23:24;;;;;;;2.80;2.20;;;21.90;89.60;;;;;;5043570;28;20459;-62
2023/11/18 12:25:54;;;;;;;4.33;2.63;;;21.90;89.80;;;;;;5047073;28;20460;-62
2023/11/18 12:28:26;;;;;;;2.67;2.47;;;21.90;89.80;;;;;;5044369;28;20462;-61
2023/11/18 12:30:56;;;;;;;2.73;2.50;;;22.00;90.00;;;;;;5040688;28;20466;-61
2023/11/18 12:33:26;;;;;;;2.67;2.47;;;22.00;90.30;;;;;;5043410;28;20507;-61
2023/11/18 12:36:38;;;;;;;2.37;2.17;;;22.00;90.00;;;;;;5045115;28;20470;-61
2023/11/18 12:39:50;;;;;;;3.60;2.93;;;22.00;90.00;;;;;;5029514;28;20547;-61
2023/11/18 12:42:49;;;;;;;2.80;2.50;;;22.00;89.30;;;;;;5026221;28;20940;-61
2023/11/18 12:45:43;;;;;;;3.23;2.50;;;22.00;89.80;;;;;;5045864;28;20801;-63
2023/11/18 12:48:14;;;;;;;2.77;2.57;;;22.10;90.00;;;;;;5048451;28;20498;-63
2023/11/18 12:50:43;;;;;;;3.20;2.63;;;22.10;90.00;;;;;;5048905;28;20464;-63
2023/11/18 12:53:14;;;;;;;2.50;2.30;;;22.00;89.90;;;;;;5030074;28;20461;-63
2023/11/18 12:55:42;;;;;;;2.70;2.50;;;22.10;90.00;;;;;;5024251;28;20475;-61